createdAt,value
2018-12-31T00:03:44.102Z,44.63
2018-12-31T00:06:32.306Z,47.50
2018-12-31T00:09:20.535Z,42.13
2018-12-31T00:12:08.291Z,42.67
2018-12-31T00:14:56.477Z,44.30
2018-12-31T00:17:45.199Z,41.20
2018-12-31T00:20:33.643Z,37.90
2018-12-31T00:23:21.882Z,36.90
2018-12-31T00:26:10.437Z,40.43
2018-12-31T00:28:58.653Z,35.53
2018-12-31T00:31:47.170Z,39.50
2018-12-31T00:34:35.919Z,41.40
2018-12-31T00:37:24.099Z,40.70
2018-12-31T00:40:12.857Z,34.73
2018-12-31T00:43:01.090Z,37.37
2018-12-31T00:45:49.283Z,37.63
2018-12-31T00:48:30.422Z,34.00
2018-12-31T00:51:11.641Z,29.50
2018-12-31T00:53:52.287Z,31.73
2018-12-31T00:56:33.250Z,33.90
2018-12-31T00:59:13.719Z,32.30
2018-12-31T01:01:55.023Z,32.93
2018-12-31T01:04:35.861Z,31.70
2018-12-31T01:07:17.557Z,37.60
2018-12-31T01:09:58.054Z,34.07
2018-12-31T01:12:39.228Z,28.63
2018-12-31T01:15:19.692Z,30.57
2018-12-31T01:18:01.102Z,29.97
2018-12-31T01:20:42.498Z,28.80
2018-12-31T01:23:23.904Z,25.00
2018-12-31T01:29:18.008Z,27.17
2018-12-31T01:31:59.140Z,31.40
2018-12-31T01:34:39.915Z,27.60
2018-12-31T01:37:21.243Z,28.77
2018-12-31T01:40:02.328Z,26.10
2018-12-31T01:42:43.415Z,29.80
2018-12-31T01:45:24.158Z,24.30
2018-12-31T01:48:05.102Z,22.20
2018-12-31T01:50:47.180Z,28.40
2018-12-31T01:53:28.527Z,28.90
2018-12-31T01:56:09.698Z,29.43
2018-12-31T01:58:51.284Z,28.53
2018-12-31T02:01:32.649Z,28.87
2018-12-31T02:04:13.495Z,22.97
2018-12-31T02:06:54.491Z,26.10
2018-12-31T02:09:36.282Z,29.40
2018-12-31T02:12:17.122Z,26.90
2018-12-31T02:14:58.074Z,25.97
2018-12-31T02:17:39.369Z,21.67
2018-12-31T02:20:19.868Z,23.17
2018-12-31T02:23:00.817Z,21.40
2018-12-31T02:25:41.367Z,28.20
2018-12-31T02:28:22.243Z,24.80
2018-12-31T02:31:01.783Z,22.80
2018-12-31T02:33:49.995Z,24.90
2018-12-31T02:36:38.191Z,28.60
2018-12-31T02:39:26.672Z,23.17
2018-12-31T02:42:14.862Z,25.40
2018-12-31T02:45:03.153Z,24.63
2018-12-31T02:47:51.347Z,22.20
2018-12-31T02:50:39.560Z,26.97
2018-12-31T02:53:27.768Z,27.47
2018-12-31T02:56:16.232Z,27.10
2018-12-31T02:59:04.714Z,24.77
2018-12-31T03:01:53.153Z,31.43
2018-12-31T03:04:41.363Z,30.70
2018-12-31T03:07:29.842Z,32.20
2018-12-31T03:09:59.255Z,27.57
2018-12-31T03:12:47.729Z,25.83
2018-12-31T03:15:36.207Z,28.83
2018-12-31T03:18:24.397Z,28.20
2018-12-31T03:21:05.449Z,27.33
2018-12-31T03:23:46.442Z,29.63
2018-12-31T03:26:27.403Z,29.50
2018-12-31T03:29:08.131Z,28.77
2018-12-31T03:31:49.123Z,29.90
2018-12-31T03:34:30.148Z,32.37
2018-12-31T03:37:11.052Z,29.00
2018-12-31T03:39:51.627Z,34.00
2018-12-31T03:42:32.431Z,30.07
2018-12-31T03:45:02.175Z,30.50
2018-12-31T03:47:50.887Z,32.73
2018-12-31T03:50:39.330Z,27.83
2018-12-31T03:53:27.511Z,33.10
2018-12-31T03:56:15.979Z,31.00
2018-12-31T03:59:04.415Z,28.47
2018-12-31T04:01:52.644Z,29.93
2018-12-31T04:04:41.103Z,24.50
2018-12-31T04:07:29.547Z,28.37
2018-12-31T04:10:17.756Z,28.50
2018-12-31T04:13:06.028Z,27.80
2018-12-31T04:15:54.240Z,31.73
2018-12-31T04:18:23.327Z,25.23
2018-12-31T04:21:03.714Z,31.30
2018-12-31T04:23:44.532Z,24.57
2018-12-31T04:26:25.362Z,33.33
2018-12-31T04:29:06.229Z,27.53
2018-12-31T04:31:47.049Z,31.50
2018-12-31T04:34:27.748Z,27.43
2018-12-31T04:36:56.819Z,30.40
2018-12-31T04:39:45.451Z,26.87
2018-12-31T04:42:33.650Z,31.70
2018-12-31T04:45:22.110Z,29.87
2018-12-31T04:48:10.299Z,31.03
2018-12-31T04:50:58.612Z,30.03
2018-12-31T04:53:47.051Z,29.07
2018-12-31T04:56:35.295Z,31.07
2018-12-31T04:59:23.422Z,37.83
2018-12-31T05:02:11.891Z,33.17
2018-12-31T05:05:00.182Z,37.93
2018-12-31T05:07:48.437Z,37.50
2018-12-31T05:10:36.653Z,28.47
2018-12-31T05:13:07.048Z,39.40
2018-12-31T05:15:55.262Z,38.60
2018-12-31T05:18:24.335Z,36.80
2018-12-31T05:21:05.128Z,36.27
2018-12-31T05:23:46.431Z,37.30
2018-12-31T05:26:27.792Z,37.60
2018-12-31T05:29:08.536Z,31.93
2018-12-31T05:31:49.065Z,33.90
2018-12-31T05:34:29.896Z,43.67
2018-12-31T05:37:11.327Z,40.67
2018-12-31T05:39:52.560Z,35.13
2018-12-31T05:42:21.759Z,36.90
2018-12-31T05:45:10.036Z,44.37
2018-12-31T05:47:58.247Z,39.30
2018-12-31T05:50:46.454Z,37.07
2018-12-31T05:53:34.815Z,36.53
2018-12-31T05:56:22.984Z,37.47
2018-12-31T05:59:11.223Z,40.70
2018-12-31T06:01:59.511Z,35.50
2018-12-31T06:04:47.951Z,33.20
2018-12-31T06:07:36.246Z,31.63
2018-12-31T06:10:24.696Z,39.10
2018-12-31T06:13:12.915Z,30.53
2018-12-31T06:16:01.117Z,32.97
2018-12-31T06:18:49.315Z,35.17
2018-12-31T06:21:18.347Z,30.87
2018-12-31T06:23:59.711Z,30.70
2018-12-31T06:26:40.304Z,33.90
2018-12-31T06:29:20.811Z,32.80
2018-12-31T06:32:01.383Z,27.73
2018-12-31T06:34:42.328Z,31.83
2018-12-31T06:37:22.945Z,31.27
2018-12-31T06:40:03.760Z,33.00
2018-12-31T06:42:32.884Z,28.33
2018-12-31T06:45:21.163Z,29.17
2018-12-31T06:48:09.387Z,32.03
2018-12-31T06:50:57.588Z,28.33
2018-12-31T06:53:45.808Z,27.50
2018-12-31T06:56:34.298Z,27.17
2018-12-31T06:59:30.210Z,25.00
2018-12-31T07:01:59.576Z,27.27
2018-12-31T07:04:48.027Z,28.93
2018-12-31T07:07:36.243Z,26.27
2018-12-31T07:10:24.442Z,27.77
2018-12-31T07:12:53.550Z,33.47
2018-12-31T07:15:42.000Z,28.37
2018-12-31T07:18:30.768Z,26.53
2018-12-31T07:21:19.209Z,24.87
2018-12-31T07:24:07.414Z,24.00
2018-12-31T07:26:55.631Z,27.40
2018-12-31T07:29:44.081Z,25.87
2018-12-31T07:32:32.299Z,27.67
2018-12-31T07:35:20.571Z,27.23
2018-12-31T07:37:49.706Z,33.67
2018-12-31T07:40:18.813Z,30.73
2018-12-31T07:43:07.346Z,30.30
2018-12-31T07:45:55.918Z,52.17
2018-12-31T07:48:44.135Z,77.10
2018-12-31T07:51:32.545Z,56.23
2018-12-31T07:54:21.014Z,31.13
2018-12-31T07:57:09.758Z,24.57
2018-12-31T07:59:57.975Z,28.40
2018-12-31T08:02:46.218Z,26.17
2018-12-31T08:05:34.623Z,31.00
2018-12-31T08:08:23.123Z,29.50
2018-12-31T08:11:11.595Z,29.20
2018-12-31T08:13:59.803Z,26.53
2018-12-31T08:16:48.096Z,28.40
2018-12-31T08:19:36.628Z,26.07
2018-12-31T08:22:25.167Z,24.03
2018-12-31T08:25:13.611Z,28.37
2018-12-31T08:28:02.092Z,25.33
2018-12-31T08:30:50.545Z,29.00
2018-12-31T08:33:39.467Z,28.53
2018-12-31T08:36:27.939Z,26.07
2018-12-31T08:39:09.252Z,27.47
2018-12-31T08:41:49.959Z,29.13
2018-12-31T08:44:31.321Z,29.33
2018-12-31T08:47:11.995Z,29.80
2018-12-31T08:49:52.572Z,24.27
2018-12-31T08:52:33.338Z,26.37
2018-12-31T08:55:13.820Z,26.40
2018-12-31T08:57:54.768Z,27.93
2018-12-31T09:00:36.400Z,25.80
2018-12-31T09:03:17.756Z,23.27
2018-12-31T09:05:58.310Z,21.27
2018-12-31T09:08:38.850Z,30.63
2018-12-31T09:11:20.094Z,25.67
2018-12-31T09:14:01.472Z,27.70
2018-12-31T09:16:42.079Z,27.97
2018-12-31T09:19:23.120Z,28.50
2018-12-31T09:22:03.957Z,29.60
2018-12-31T09:24:44.788Z,27.27
2018-12-31T09:27:25.989Z,23.03
2018-12-31T09:30:06.833Z,29.13
2018-12-31T09:32:48.063Z,26.17
2018-12-31T09:35:29.405Z,23.60
2018-12-31T09:38:10.131Z,28.57
2018-12-31T09:40:51.003Z,24.17
2018-12-31T09:43:32.299Z,28.20
2018-12-31T09:46:13.116Z,24.20
2018-12-31T09:48:54.444Z,28.03
2018-12-31T09:51:35.810Z,22.93
2018-12-31T09:54:17.110Z,23.67
2018-12-31T09:56:57.786Z,23.50
2018-12-31T09:59:39.172Z,23.63
2018-12-31T10:02:20.913Z,31.07
2018-12-31T10:05:01.685Z,21.53
2018-12-31T10:07:42.327Z,23.97
2018-12-31T10:10:22.984Z,33.23
2018-12-31T10:13:04.505Z,32.50
2018-12-31T10:15:45.806Z,26.37
2018-12-31T10:18:14.902Z,26.47
2018-12-31T10:21:03.207Z,31.80
2018-12-31T10:23:51.521Z,30.83
2018-12-31T10:26:39.975Z,30.07
2018-12-31T10:29:35.811Z,25.17
2018-12-31T10:32:18.727Z,24.60
2018-12-31T10:35:06.991Z,25.50
2018-12-31T10:37:55.628Z,24.93
2018-12-31T10:40:44.476Z,24.80
2018-12-31T10:43:32.756Z,23.50
2018-12-31T10:46:21.708Z,20.67
2018-12-31T10:49:10.090Z,21.40
2018-12-31T10:51:58.444Z,19.17
2018-12-31T10:54:47.017Z,21.17
2018-12-31T10:57:35.459Z,22.70
2018-12-31T11:00:23.680Z,22.00
2018-12-31T11:03:12.206Z,21.97
2018-12-31T11:06:01.136Z,22.87
2018-12-31T11:08:49.344Z,20.10
2018-12-31T11:11:37.495Z,19.90
2018-12-31T11:14:18.988Z,21.10
2018-12-31T11:16:59.620Z,19.40
2018-12-31T11:19:40.509Z,24.93
2018-12-31T11:22:21.235Z,22.40
2018-12-31T11:25:01.742Z,24.53
2018-12-31T11:27:42.794Z,17.93
2018-12-31T11:30:23.808Z,20.60
2018-12-31T11:33:04.979Z,27.17
2018-12-31T11:35:34.133Z,21.67
2018-12-31T11:38:03.503Z,20.83
2018-12-31T11:40:51.656Z,22.37
2018-12-31T11:43:39.949Z,21.13
2018-12-31T11:46:28.323Z,19.50
2018-12-31T11:49:16.714Z,20.53
2018-12-31T11:51:57.481Z,21.07
2018-12-31T11:54:39.307Z,21.47
2018-12-31T11:57:20.480Z,23.90
2018-12-31T12:00:01.870Z,20.50
2018-12-31T12:02:43.166Z,23.57
2018-12-31T12:05:24.392Z,23.53
2018-12-31T12:08:04.947Z,20.10
2018-12-31T12:10:45.657Z,22.03
2018-12-31T12:13:26.428Z,24.20
2018-12-31T12:16:07.744Z,21.30
2018-12-31T12:18:48.955Z,20.50
2018-12-31T12:21:29.975Z,20.00
2018-12-31T12:24:11.400Z,17.63
2018-12-31T12:26:52.664Z,18.93
2018-12-31T12:29:21.810Z,22.60
2018-12-31T12:32:10.155Z,19.23
2018-12-31T12:34:58.365Z,20.83
2018-12-31T12:37:48.645Z,23.30
2018-12-31T12:40:37.750Z,19.40
2018-12-31T12:43:26.566Z,20.83
2018-12-31T12:46:15.580Z,20.10
2018-12-31T12:49:04.003Z,20.80
2018-12-31T12:51:52.703Z,18.50
2018-12-31T12:54:41.369Z,23.17
2018-12-31T12:57:29.948Z,19.63
2018-12-31T13:00:19.133Z,21.57
2018-12-31T13:03:07.654Z,22.43
2018-12-31T13:05:56.507Z,21.23
2018-12-31T13:08:45.287Z,20.30
2018-12-31T13:11:34.196Z,19.30
2018-12-31T13:14:23.547Z,20.50
2018-12-31T13:17:12.385Z,20.23
2018-12-31T13:20:00.954Z,19.80
2018-12-31T13:22:49.142Z,21.20
2018-12-31T13:25:37.855Z,20.03
2018-12-31T13:28:27.224Z,22.10
2018-12-31T13:31:16.201Z,21.83
2018-12-31T13:34:06.348Z,18.07
2018-12-31T13:36:56.410Z,24.00
2018-12-31T13:39:45.885Z,24.13
2018-12-31T13:42:35.337Z,20.27
2018-12-31T13:45:25.771Z,24.80
2018-12-31T13:48:15.350Z,23.60
2018-12-31T13:51:04.216Z,19.97
2018-12-31T13:53:45.498Z,25.03
2018-12-31T13:56:26.294Z,18.70
2018-12-31T13:59:07.581Z,22.30
2018-12-31T14:01:48.919Z,22.80
2018-12-31T14:04:29.951Z,24.03
2018-12-31T14:07:11.214Z,20.67
2018-12-31T14:09:52.246Z,22.40
2018-12-31T14:12:32.880Z,21.27
2018-12-31T14:15:14.211Z,25.83
2018-12-31T14:17:54.688Z,21.80
2018-12-31T14:20:35.166Z,20.17
2018-12-31T14:23:16.126Z,21.70
2018-12-31T14:25:56.849Z,26.00
2018-12-31T14:28:38.538Z,20.73
2018-12-31T14:31:19.602Z,22.57
2018-12-31T14:34:01.256Z,24.80
2018-12-31T14:36:43.557Z,26.73
2018-12-31T14:39:25.087Z,24.47
2018-12-31T14:42:06.458Z,24.47
2018-12-31T14:44:47.830Z,21.60
2018-12-31T14:47:28.554Z,21.50
2018-12-31T14:50:09.183Z,24.00
2018-12-31T14:52:50.263Z,26.53
2018-12-31T14:55:31.705Z,21.80
2018-12-31T14:58:12.999Z,30.77
2018-12-31T15:00:53.873Z,23.17
2018-12-31T15:03:34.535Z,27.27
2018-12-31T15:06:16.338Z,23.60
2018-12-31T15:08:56.835Z,27.20
2018-12-31T15:11:37.554Z,28.60
2018-12-31T15:14:19.282Z,29.03
2018-12-31T15:17:00.839Z,29.87
2018-12-31T15:19:41.871Z,26.70
2018-12-31T15:22:28.858Z,26.77
2018-12-31T15:25:05.127Z,26.70
2018-12-31T15:27:34.864Z,27.50
2018-12-31T15:30:23.153Z,28.07
2018-12-31T15:33:11.471Z,26.60
2018-12-31T15:35:59.914Z,28.83
2018-12-31T15:38:48.459Z,24.17
2018-12-31T15:41:39.080Z,29.60
2018-12-31T15:44:27.747Z,24.87
2018-12-31T15:47:17.236Z,24.23
2018-12-31T15:50:05.872Z,25.90
2018-12-31T15:55:47.995Z,27.27
2018-12-31T15:58:36.363Z,26.37
2018-12-31T16:01:24.763Z,21.40
2018-12-31T16:04:13.336Z,21.20
2018-12-31T16:07:01.806Z,23.93
2018-12-31T16:09:50.535Z,25.97
2018-12-31T16:12:32.363Z,27.43
2018-12-31T16:15:13.536Z,25.63
2018-12-31T16:17:55.102Z,28.77
2018-12-31T16:20:36.848Z,25.60
2018-12-31T16:23:17.486Z,29.90
2018-12-31T16:25:59.094Z,31.43
2018-12-31T16:28:40.514Z,32.63
2018-12-31T16:31:22.530Z,36.27
2018-12-31T16:34:03.626Z,27.03
2018-12-31T16:36:45.167Z,28.37
2018-12-31T16:39:26.479Z,32.03
2018-12-31T16:42:07.279Z,36.03
2018-12-31T16:44:48.320Z,28.47
2018-12-31T16:47:28.873Z,33.80
2018-12-31T16:50:09.724Z,39.47
2018-12-31T16:52:50.902Z,34.40
2018-12-31T16:55:31.637Z,39.50
2018-12-31T16:58:12.402Z,46.50
2018-12-31T17:00:53.012Z,41.97
2018-12-31T17:03:33.995Z,38.90
2018-12-31T17:06:15.192Z,38.43
2018-12-31T17:08:57.088Z,39.90
2018-12-31T17:11:38.406Z,45.00
2018-12-31T17:14:19.471Z,46.97
2018-12-31T17:17:00.404Z,43.13
2018-12-31T17:19:41.875Z,49.60
2018-12-31T17:22:23.667Z,62.80
2018-12-31T17:25:04.907Z,58.70
2018-12-31T17:27:45.854Z,50.77
2018-12-31T17:30:27.011Z,42.33
2018-12-31T17:33:07.683Z,38.67
2018-12-31T17:35:48.927Z,36.17
2018-12-31T17:38:30.130Z,35.30
2018-12-31T17:41:11.004Z,33.47
2018-12-31T17:43:52.114Z,34.40
2018-12-31T17:46:33.415Z,31.50
2018-12-31T17:51:57.700Z,42.23
2018-12-31T17:54:38.492Z,39.97
2018-12-31T17:57:19.111Z,41.30
2018-12-31T18:00:00.642Z,37.73
2018-12-31T18:02:41.149Z,34.60
2018-12-31T18:05:21.912Z,34.33
2018-12-31T18:08:03.501Z,33.47
2018-12-31T18:10:44.154Z,49.23
2018-12-31T18:13:25.062Z,30.43
2018-12-31T18:16:05.411Z,29.10
2018-12-31T18:18:46.811Z,30.37
2018-12-31T18:21:28.259Z,32.60
2018-12-31T18:24:08.728Z,35.73
2018-12-31T18:26:50.039Z,34.63
2018-12-31T18:29:30.598Z,31.43
2018-12-31T18:32:11.946Z,33.07
2018-12-31T18:34:52.975Z,34.50
2018-12-31T18:37:41.523Z,35.33
2018-12-31T18:40:17.295Z,32.10
2018-12-31T18:42:58.536Z,72.83
2018-12-31T18:45:39.691Z,57.00
2018-12-31T18:48:22.073Z,52.97
2018-12-31T18:51:03.832Z,43.90
2018-12-31T18:53:44.436Z,53.20
2018-12-31T18:56:25.544Z,39.43
2018-12-31T18:59:06.187Z,36.33
2018-12-31T19:01:46.788Z,38.40
2018-12-31T19:04:27.799Z,37.63
2018-12-31T19:07:08.509Z,39.93
2018-12-31T19:09:49.158Z,47.50
2018-12-31T19:12:30.588Z,61.27
2018-12-31T19:15:12.291Z,84.70
2018-12-31T19:17:53.783Z,84.10
2018-12-31T19:20:35.245Z,82.47
2018-12-31T19:23:16.419Z,76.50
2018-12-31T19:25:45.599Z,80.13
2018-12-31T19:28:33.791Z,82.97
2018-12-31T19:31:22.035Z,45.87
2018-12-31T19:34:10.322Z,43.60
2018-12-31T19:36:58.812Z,38.17
2018-12-31T19:39:47.391Z,47.30
2018-12-31T19:42:35.647Z,47.20
2018-12-31T19:45:23.920Z,50.70
2018-12-31T19:48:12.158Z,39.67
2018-12-31T19:51:00.414Z,81.23
2018-12-31T19:53:48.915Z,97.33
2018-12-31T19:56:37.372Z,96.67
2018-12-31T19:59:25.602Z,67.13
2018-12-31T20:02:14.104Z,73.30
2018-12-31T20:05:02.586Z,58.23
2018-12-31T20:07:51.126Z,39.40
2018-12-31T20:10:39.499Z,46.93
2018-12-31T20:13:27.758Z,46.63
2018-12-31T20:16:18.392Z,55.03
2018-12-31T20:19:06.975Z,80.77
2018-12-31T20:21:56.974Z,206.83
2018-12-31T20:24:45.203Z,61.00
2018-12-31T20:27:35.133Z,64.37
2018-12-31T20:30:23.686Z,46.63
2018-12-31T20:33:11.952Z,37.80
2018-12-31T20:36:00.280Z,47.37
2018-12-31T20:38:48.810Z,47.87
2018-12-31T20:41:37.190Z,42.27
2018-12-31T20:44:25.642Z,43.43
2018-12-31T20:47:14.140Z,46.00
2018-12-31T20:50:02.557Z,43.30
2018-12-31T20:52:51.275Z,44.80
2018-12-31T20:55:39.586Z,53.90
2018-12-31T20:58:27.782Z,56.80
2018-12-31T21:01:16.285Z,48.63
2018-12-31T21:03:59.351Z,42.20
2018-12-31T21:06:39.943Z,49.93
2018-12-31T21:09:21.277Z,52.43
2018-12-31T21:12:02.671Z,199.70
2018-12-31T21:14:31.935Z,206.23
2018-12-31T21:17:20.216Z,71.60
2018-12-31T21:20:08.923Z,57.70
2018-12-31T21:22:57.387Z,65.40
2018-12-31T21:25:45.687Z,70.87
2018-12-31T21:28:33.927Z,75.40
2018-12-31T21:31:22.218Z,61.93
2018-12-31T21:34:10.536Z,72.60
2018-12-31T21:36:59.298Z,55.40
2018-12-31T21:39:47.605Z,56.30
2018-12-31T21:42:37.883Z,51.13
2018-12-31T21:45:26.392Z,53.50
2018-12-31T21:47:57.247Z,51.77
2018-12-31T21:50:45.528Z,49.60
2018-12-31T21:53:14.554Z,47.63
2018-12-31T21:56:02.874Z,40.90
2018-12-31T21:58:32.362Z,43.83
2018-12-31T22:01:20.613Z,44.97
2018-12-31T22:03:52.060Z,46.13
2018-12-31T22:06:40.591Z,48.70
2018-12-31T22:09:28.831Z,46.60
2018-12-31T22:12:17.098Z,43.07
2018-12-31T22:14:46.236Z,49.37
2018-12-31T22:17:34.786Z,53.47
2018-12-31T22:20:23.075Z,55.33
2018-12-31T22:23:04.050Z,69.70
2018-12-31T22:25:45.163Z,55.47
2018-12-31T22:28:29.099Z,72.03
2018-12-31T22:31:10.663Z,71.03
2018-12-31T22:33:52.256Z,209.40
2018-12-31T22:36:33.747Z,115.90
2018-12-31T22:41:58.267Z,84.53
2018-12-31T22:44:46.520Z,78.90
2018-12-31T22:47:34.814Z,73.47
2018-12-31T22:50:23.029Z,61.10
2018-12-31T22:53:11.609Z,106.53
2018-12-31T22:56:00.271Z,78.83
2018-12-31T22:58:29.359Z,82.97
2018-12-31T23:01:17.833Z,260.47
2018-12-31T23:04:07.995Z,573.43
2018-12-31T23:06:37.886Z,1005.93
2018-12-31T23:09:26.174Z,1111.03
2018-12-31T23:12:14.405Z,836.53
2018-12-31T23:15:02.696Z,869.47
2018-12-31T23:17:51.330Z,1180.50
2018-12-31T23:20:39.950Z,1066.60
2018-12-31T23:23:28.743Z,952.60
2018-12-31T23:26:17.240Z,793.20
2018-12-31T23:29:05.466Z,809.80
2018-12-31T23:31:54.361Z,764.33
2018-12-31T23:34:43.080Z,782.47
2018-12-31T23:37:23.945Z,1193.63
2018-12-31T23:40:05.113Z,983.80
2018-12-31T23:42:46.696Z,885.13
2018-12-31T23:45:28.226Z,1295.23
2018-12-31T23:48:09.477Z,820.17
2018-12-31T23:50:52.427Z,595.07
2018-12-31T23:53:33.307Z,559.20
2018-12-31T23:56:19.062Z,558.17
2018-12-31T23:59:00.400Z,491.40
